sensor_id;sensor_type;location;lat;lon;timestamp;P1;durP1;ratioP1;P2;durP2;ratioP2
53503;SDS011;39387;50.998;22.340;2022-07-29T00:00:51;4.30;;;2.72;;
53503;SDS011;39387;50.998;22.340;2022-07-29T00:03:18;3.85;;;3.15;;
53503;SDS011;39387;50.998;22.340;2022-07-29T00:05:45;3.00;;;2.55;;
53503;SDS011;39387;50.998;22.340;2022-07-29T00:08:12;4.18;;;2.60;;
53503;SDS011;39387;50.998;22.340;2022-07-29T00:10:40;6.30;;;3.55;;
53503;SDS011;39387;50.998;22.340;2022-07-29T00:13:09;3.50;;;2.67;;
53503;SDS011;39387;50.998;22.340;2022-07-29T00:15:36;4.65;;;2.88;;
53503;SDS011;39387;50.998;22.340;2022-07-29T00:18:04;4.75;;;2.80;;
53503;SDS011;39387;50.998;22.340;2022-07-29T00:20:31;4.47;;;2.67;;
53503;SDS011;39387;50.998;22.340;2022-07-29T00:22:58;3.90;;;2.50;;
53503;SDS011;39387;50.998;22.340;2022-07-29T00:25:26;4.35;;;3.15;;
53503;SDS011;39387;50.998;22.340;2022-07-29T00:27:53;4.30;;;2.78;;
53503;SDS011;39387;50.998;22.340;2022-07-29T00:30:22;4.35;;;2.90;;
53503;SDS011;39387;50.998;22.340;2022-07-29T00:32:49;4.32;;;3.05;;
53503;SDS011;39387;50.998;22.340;2022-07-29T00:35:17;3.03;;;2.63;;
53503;SDS011;39387;50.998;22.340;2022-07-29T00:38:01;4.80;;;2.75;;
53503;SDS011;39387;50.998;22.340;2022-07-29T00:40:29;4.90;;;2.90;;
53503;SDS011;39387;50.998;22.340;2022-07-29T00:42:56;3.42;;;2.83;;
53503;SDS011;39387;50.998;22.340;2022-07-29T00:45:25;5.57;;;3.40;;
53503;SDS011;39387;50.998;22.340;2022-07-29T00:47:52;5.10;;;2.80;;
53503;SDS011;39387;50.998;22.340;2022-07-29T00:50:19;4.05;;;2.80;;
53503;SDS011;39387;50.998;22.340;2022-07-29T00:52:50;3.83;;;2.83;;
53503;SDS011;39387;50.998;22.340;2022-07-29T00:57:45;6.35;;;3.03;;
53503;SDS011;39387;50.998;22.340;2022-07-29T01:00:14;5.88;;;3.55;;
53503;SDS011;39387;50.998;22.340;2022-07-29T01:05:13;4.68;;;2.80;;
53503;SDS011;39387;50.998;22.340;2022-07-29T01:07:42;4.65;;;2.80;;
53503;SDS011;39387;50.998;22.340;2022-07-29T01:10:09;4.03;;;2.58;;
53503;SDS011;39387;50.998;22.340;2022-07-29T01:12:38;3.85;;;2.90;;
53503;SDS011;39387;50.998;22.340;2022-07-29T01:15:06;3.33;;;2.58;;
53503;SDS011;39387;50.998;22.340;2022-07-29T01:17:36;4.13;;;2.88;;
53503;SDS011;39387;50.998;22.340;2022-07-29T01:20:12;4.85;;;3.10;;
53503;SDS011;39387;50.998;22.340;2022-07-29T01:22:52;3.10;;;2.63;;
53503;SDS011;39387;50.998;22.340;2022-07-29T01:25:42;3.33;;;2.70;;
53503;SDS011;39387;50.998;22.340;2022-07-29T01:31:14;4.25;;;3.08;;
53503;SDS011;39387;50.998;22.340;2022-07-29T01:33:47;6.75;;;2.83;;
53503;SDS011;39387;50.998;22.340;2022-07-29T01:36:18;5.45;;;3.10;;
53503;SDS011;39387;50.998;22.340;2022-07-29T01:38:52;5.55;;;3.20;;
53503;SDS011;39387;50.998;22.340;2022-07-29T01:41:31;4.05;;;3.30;;
53503;SDS011;39387;50.998;22.340;2022-07-29T01:44:01;3.85;;;2.90;;
53503;SDS011;39387;50.998;22.340;2022-07-29T01:46:33;4.22;;;2.88;;
53503;SDS011;39387;50.998;22.340;2022-07-29T01:49:10;4.65;;;3.30;;
53503;SDS011;39387;50.998;22.340;2022-07-29T01:51:41;4.25;;;3.15;;
53503;SDS011;39387;50.998;22.340;2022-07-29T01:54:13;4.15;;;3.00;;
53503;SDS011;39387;50.998;22.340;2022-07-29T01:56:42;3.90;;;3.33;;
53503;SDS011;39387;50.998;22.340;2022-07-29T01:59:11;4.57;;;3.30;;
53503;SDS011;39387;50.998;22.340;2022-07-29T02:01:40;4.00;;;2.83;;
53503;SDS011;39387;50.998;22.340;2022-07-29T02:04:09;4.60;;;2.90;;
53503;SDS011;39387;50.998;22.340;2022-07-29T02:06:38;3.75;;;3.00;;
53503;SDS011;39387;50.998;22.340;2022-07-29T02:09:06;5.05;;;3.35;;
53503;SDS011;39387;50.998;22.340;2022-07-29T02:11:34;3.75;;;3.13;;
53503;SDS011;39387;50.998;22.340;2022-07-29T02:14:02;3.97;;;3.45;;
53503;SDS011;39387;50.998;22.340;2022-07-29T02:16:31;3.67;;;3.13;;
53503;SDS011;39387;50.998;22.340;2022-07-29T02:19:01;5.05;;;3.30;;
53503;SDS011;39387;50.998;22.340;2022-07-29T02:21:29;3.70;;;2.55;;
53503;SDS011;39387;50.998;22.340;2022-07-29T02:23:58;3.78;;;2.65;;
53503;SDS011;39387;50.998;22.340;2022-07-29T02:26:26;4.38;;;2.78;;
53503;SDS011;39387;50.998;22.340;2022-07-29T02:28:56;5.43;;;3.38;;
53503;SDS011;39387;50.998;22.340;2022-07-29T02:31:25;4.10;;;2.75;;
53503;SDS011;39387;50.998;22.340;2022-07-29T02:33:53;4.03;;;3.00;;
53503;SDS011;39387;50.998;22.340;2022-07-29T02:36:22;5.97;;;3.45;;
53503;SDS011;39387;50.998;22.340;2022-07-29T02:38:50;3.50;;;2.75;;
53503;SDS011;39387;50.998;22.340;2022-07-29T02:41:19;4.10;;;3.13;;
53503;SDS011;39387;50.998;22.340;2022-07-29T02:43:47;3.92;;;2.85;;
53503;SDS011;39387;50.998;22.340;2022-07-29T02:46:19;5.22;;;2.90;;
53503;SDS011;39387;50.998;22.340;2022-07-29T02:48:54;6.47;;;3.03;;
53503;SDS011;39387;50.998;22.340;2022-07-29T02:51:25;3.70;;;2.58;;
53503;SDS011;39387;50.998;22.340;2022-07-29T02:53:56;3.53;;;2.90;;
53503;SDS011;39387;50.998;22.340;2022-07-29T02:56:24;4.07;;;3.20;;
53503;SDS011;39387;50.998;22.340;2022-07-29T02:58:54;3.10;;;2.72;;
53503;SDS011;39387;50.998;22.340;2022-07-29T03:01:23;3.33;;;2.90;;
53503;SDS011;39387;50.998;22.340;2022-07-29T03:03:51;4.80;;;2.90;;
53503;SDS011;39387;50.998;22.340;2022-07-29T03:06:20;5.13;;;3.03;;
53503;SDS011;39387;50.998;22.340;2022-07-29T03:08:50;4.80;;;3.28;;
53503;SDS011;39387;50.998;22.340;2022-07-29T03:11:18;4.10;;;3.05;;
53503;SDS011;39387;50.998;22.340;2022-07-29T03:13:45;4.82;;;3.30;;
53503;SDS011;39387;50.998;22.340;2022-07-29T03:16:12;4.15;;;3.08;;
53503;SDS011;39387;50.998;22.340;2022-07-29T03:18:40;3.17;;;2.63;;
53503;SDS011;39387;50.998;22.340;2022-07-29T03:21:08;8.40;;;3.10;;
53503;SDS011;39387;50.998;22.340;2022-07-29T03:23:35;3.92;;;3.00;;
53503;SDS011;39387;50.998;22.340;2022-07-29T03:26:04;5.22;;;2.97;;
53503;SDS011;39387;50.998;22.340;2022-07-29T03:28:31;4.50;;;3.08;;
53503;SDS011;39387;50.998;22.340;2022-07-29T03:30:58;5.57;;;3.30;;
53503;SDS011;39387;50.998;22.340;2022-07-29T03:33:26;4.30;;;2.88;;
53503;SDS011;39387;50.998;22.340;2022-07-29T03:35:54;3.75;;;2.50;;
53503;SDS011;39387;50.998;22.340;2022-07-29T03:38:21;3.63;;;2.83;;
53503;SDS011;39387;50.998;22.340;2022-07-29T03:40:51;3.45;;;2.97;;
53503;SDS011;39387;50.998;22.340;2022-07-29T03:43:22;3.15;;;2.80;;
53503;SDS011;39387;50.998;22.340;2022-07-29T03:45:51;3.47;;;2.93;;
53503;SDS011;39387;50.998;22.340;2022-07-29T03:48:20;3.58;;;2.95;;
53503;SDS011;39387;50.998;22.340;2022-07-29T03:50:49;3.75;;;2.72;;
53503;SDS011;39387;50.998;22.340;2022-07-29T03:53:17;3.08;;;2.70;;
53503;SDS011;39387;50.998;22.340;2022-07-29T03:55:45;3.08;;;2.60;;
53503;SDS011;39387;50.998;22.340;2022-07-29T03:58:14;3.55;;;2.30;;
53503;SDS011;39387;50.998;22.340;2022-07-29T04:00:43;2.38;;;2.17;;
53503;SDS011;39387;50.998;22.340;2022-07-29T04:03:11;3.25;;;2.38;;
53503;SDS011;39387;50.998;22.340;2022-07-29T04:05:39;3.45;;;2.40;;
53503;SDS011;39387;50.998;22.340;2022-07-29T04:08:06;3.35;;;2.30;;
53503;SDS011;39387;50.998;22.340;2022-07-29T04:10:33;3.78;;;2.33;;
53503;SDS011;39387;50.998;22.340;2022-07-29T04:13:01;2.63;;;2.20;;
53503;SDS011;39387;50.998;22.340;2022-07-29T04:15:28;2.72;;;2.30;;
53503;SDS011;39387;50.998;22.340;2022-07-29T04:17:57;3.72;;;2.35;;
53503;SDS011;39387;50.998;22.340;2022-07-29T04:20:24;2.40;;;2.20;;
53503;SDS011;39387;50.998;22.340;2022-07-29T04:22:51;3.55;;;2.13;;
53503;SDS011;39387;50.998;22.340;2022-07-29T04:25:19;3.67;;;2.30;;
53503;SDS011;39387;50.998;22.340;2022-07-29T04:27:46;3.20;;;2.08;;
53503;SDS011;39387;50.998;22.340;2022-07-29T04:30:29;2.75;;;2.20;;
53503;SDS011;39387;50.998;22.340;2022-07-29T04:32:58;5.07;;;2.47;;
53503;SDS011;39387;50.998;22.340;2022-07-29T04:35:26;2.58;;;2.33;;
53503;SDS011;39387;50.998;22.340;2022-07-29T04:37:53;2.50;;;2.30;;
53503;SDS011;39387;50.998;22.340;2022-07-29T04:40:21;2.22;;;1.90;;
53503;SDS011;39387;50.998;22.340;2022-07-29T04:42:48;1.85;;;1.60;;
53503;SDS011;39387;50.998;22.340;2022-07-29T04:45:16;2.55;;;1.80;;
53503;SDS011;39387;50.998;22.340;2022-07-29T04:47:43;3.00;;;2.03;;
53503;SDS011;39387;50.998;22.340;2022-07-29T04:50:12;2.30;;;1.77;;
53503;SDS011;39387;50.998;22.340;2022-07-29T04:52:40;2.50;;;1.95;;
53503;SDS011;39387;50.998;22.340;2022-07-29T04:55:08;11.98;;;2.15;;
53503;SDS011;39387;50.998;22.340;2022-07-29T04:57:36;5.10;;;1.70;;
53503;SDS011;39387;50.998;22.340;2022-07-29T05:00:04;2.53;;;2.00;;
53503;SDS011;39387;50.998;22.340;2022-07-29T05:02:32;2.55;;;1.60;;
53503;SDS011;39387;50.998;22.340;2022-07-29T05:04:59;1.95;;;1.38;;
53503;SDS011;39387;50.998;22.340;2022-07-29T05:07:29;2.38;;;1.40;;
53503;SDS011;39387;50.998;22.340;2022-07-29T05:09:56;2.30;;;1.50;;
53503;SDS011;39387;50.998;22.340;2022-07-29T05:12:23;2.65;;;1.42;;
53503;SDS011;39387;50.998;22.340;2022-07-29T05:14:51;1.85;;;1.40;;
53503;SDS011;39387;50.998;22.340;2022-07-29T05:17:18;1.90;;;1.50;;
53503;SDS011;39387;50.998;22.340;2022-07-29T05:19:45;3.50;;;1.50;;
53503;SDS011;39387;50.998;22.340;2022-07-29T05:22:13;3.03;;;1.70;;
53503;SDS011;39387;50.998;22.340;2022-07-29T05:24:41;1.50;;;1.40;;
53503;SDS011;39387;50.998;22.340;2022-07-29T05:27:08;1.83;;;1.20;;
53503;SDS011;39387;50.998;22.340;2022-07-29T05:29:36;2.28;;;1.52;;
53503;SDS011;39387;50.998;22.340;2022-07-29T05:32:03;3.50;;;1.13;;
53503;SDS011;39387;50.998;22.340;2022-07-29T05:34:31;4.18;;;1.50;;
53503;SDS011;39387;50.998;22.340;2022-07-29T05:36:58;3.03;;;1.42;;
53503;SDS011;39387;50.998;22.340;2022-07-29T05:39:25;3.25;;;1.45;;
53503;SDS011;39387;50.998;22.340;2022-07-29T05:41:54;1.67;;;1.45;;
53503;SDS011;39387;50.998;22.340;2022-07-29T05:44:21;2.22;;;1.50;;
53503;SDS011;39387;50.998;22.340;2022-07-29T05:46:49;2.03;;;1.35;;
53503;SDS011;39387;50.998;22.340;2022-07-29T05:49:16;1.40;;;1.30;;
53503;SDS011;39387;50.998;22.340;2022-07-29T05:51:44;1.88;;;1.40;;
53503;SDS011;39387;50.998;22.340;2022-07-29T05:54:11;1.67;;;1.27;;
53503;SDS011;39387;50.998;22.340;2022-07-29T05:56:38;2.38;;;1.27;;
53503;SDS011;39387;50.998;22.340;2022-07-29T05:59:07;2.03;;;1.40;;
53503;SDS011;39387;50.998;22.340;2022-07-29T06:01:34;2.28;;;1.50;;
53503;SDS011;39387;50.998;22.340;2022-07-29T06:04:04;2.05;;;1.50;;
53503;SDS011;39387;50.998;22.340;2022-07-29T06:06:32;2.85;;;1.48;;
53503;SDS011;39387;50.998;22.340;2022-07-29T06:08:59;1.50;;;1.40;;
53503;SDS011;39387;50.998;22.340;2022-07-29T06:11:27;1.98;;;1.50;;
53503;SDS011;39387;50.998;22.340;2022-07-29T06:13:55;3.40;;;1.48;;
53503;SDS011;39387;50.998;22.340;2022-07-29T06:16:23;2.42;;;1.38;;
53503;SDS011;39387;50.998;22.340;2022-07-29T06:18:50;1.42;;;1.25;;
53503;SDS011;39387;50.998;22.340;2022-07-29T06:21:18;2.30;;;1.30;;
53503;SDS011;39387;50.998;22.340;2022-07-29T06:23:45;2.88;;;1.50;;
53503;SDS011;39387;50.998;22.340;2022-07-29T06:26:12;1.88;;;1.17;;
53503;SDS011;39387;50.998;22.340;2022-07-29T06:28:40;2.08;;;1.50;;
53503;SDS011;39387;50.998;22.340;2022-07-29T06:31:07;1.73;;;1.38;;
53503;SDS011;39387;50.998;22.340;2022-07-29T06:33:35;2.63;;;1.35;;
53503;SDS011;39387;50.998;22.340;2022-07-29T06:36:03;1.35;;;1.10;;
53503;SDS011;39387;50.998;22.340;2022-07-29T06:38:31;1.20;;;1.10;;
53503;SDS011;39387;50.998;22.340;2022-07-29T06:40:59;3.35;;;1.50;;
53503;SDS011;39387;50.998;22.340;2022-07-29T06:43:28;2.38;;;1.10;;
53503;SDS011;39387;50.998;22.340;2022-07-29T06:45:58;1.80;;;1.10;;
53503;SDS011;39387;50.998;22.340;2022-07-29T06:48:26;2.93;;;0.93;;
53503;SDS011;39387;50.998;22.340;2022-07-29T06:50:56;2.22;;;1.08;;
53503;SDS011;39387;50.998;22.340;2022-07-29T06:53:23;1.70;;;1.02;;
53503;SDS011;39387;50.998;22.340;2022-07-29T06:55:50;4.70;;;1.00;;
53503;SDS011;39387;50.998;22.340;2022-07-29T06:58:18;0.93;;;0.90;;
53503;SDS011;39387;50.998;22.340;2022-07-29T07:00:46;1.00;;;0.90;;
53503;SDS011;39387;50.998;22.340;2022-07-29T07:03:13;0.82;;;0.75;;
53503;SDS011;39387;50.998;22.340;2022-07-29T07:05:41;2.15;;;0.85;;
53503;SDS011;39387;50.998;22.340;2022-07-29T07:08:09;1.65;;;0.93;;
53503;SDS011;39387;50.998;22.340;2022-07-29T07:10:37;1.80;;;0.88;;
53503;SDS011;39387;50.998;22.340;2022-07-29T07:13:05;1.50;;;0.75;;
53503;SDS011;39387;50.998;22.340;2022-07-29T07:15:32;2.95;;;0.90;;
53503;SDS011;39387;50.998;22.340;2022-07-29T07:17:59;1.23;;;0.70;;
53503;SDS011;39387;50.998;22.340;2022-07-29T07:20:27;0.90;;;0.70;;
53503;SDS011;39387;50.998;22.340;2022-07-29T07:22:54;4.85;;;1.08;;
53503;SDS011;39387;50.998;22.340;2022-07-29T07:25:23;2.83;;;0.98;;
53503;SDS011;39387;50.998;22.340;2022-07-29T07:27:51;1.33;;;0.70;;
53503;SDS011;39387;50.998;22.340;2022-07-29T07:30:18;3.45;;;0.90;;
53503;SDS011;39387;50.998;22.340;2022-07-29T07:32:45;1.77;;;0.90;;
53503;SDS011;39387;50.998;22.340;2022-07-29T07:35:13;4.40;;;1.13;;
53503;SDS011;39387;50.998;22.340;2022-07-29T07:37:40;2.38;;;0.88;;
53503;SDS011;39387;50.998;22.340;2022-07-29T07:40:08;2.10;;;1.00;;
53503;SDS011;39387;50.998;22.340;2022-07-29T07:42:39;1.23;;;0.90;;
53503;SDS011;39387;50.998;22.340;2022-07-29T07:45:07;1.20;;;0.82;;
53503;SDS011;39387;50.998;22.340;2022-07-29T07:47:35;2.60;;;0.90;;
53503;SDS011;39387;50.998;22.340;2022-07-29T07:50:03;2.58;;;1.20;;
53503;SDS011;39387;50.998;22.340;2022-07-29T07:52:31;1.48;;;0.80;;
53503;SDS011;39387;50.998;22.340;2022-07-29T07:54:59;0.93;;;0.80;;
53503;SDS011;39387;50.998;22.340;2022-07-29T07:57:26;0.80;;;0.60;;
53503;SDS011;39387;50.998;22.340;2022-07-29T07:59:55;0.68;;;0.65;;
53503;SDS011;39387;50.998;22.340;2022-07-29T08:02:22;1.40;;;0.90;;
53503;SDS011;39387;50.998;22.340;2022-07-29T08:04:50;1.95;;;0.98;;
53503;SDS011;39387;50.998;22.340;2022-07-29T08:07:17;1.40;;;0.80;;
53503;SDS011;39387;50.998;22.340;2022-07-29T08:09:44;3.58;;;0.90;;
53503;SDS011;39387;50.998;22.340;2022-07-29T08:12:11;1.00;;;0.90;;
53503;SDS011;39387;50.998;22.340;2022-07-29T08:14:39;0.88;;;0.70;;
53503;SDS011;39387;50.998;22.340;2022-07-29T08:17:07;1.05;;;0.90;;
53503;SDS011;39387;50.998;22.340;2022-07-29T08:19:35;1.55;;;0.70;;
53503;SDS011;39387;50.998;22.340;2022-07-29T08:22:03;1.98;;;1.00;;
53503;SDS011;39387;50.998;22.340;2022-07-29T08:24:31;1.00;;;0.90;;
53503;SDS011;39387;50.998;22.340;2022-07-29T08:27:18;1.70;;;1.13;;
53503;SDS011;39387;50.998;22.340;2022-07-29T08:29:46;0.90;;;0.90;;
53503;SDS011;39387;50.998;22.340;2022-07-29T08:32:15;1.50;;;0.73;;
53503;SDS011;39387;50.998;22.340;2022-07-29T08:34:42;1.55;;;1.00;;
53503;SDS011;39387;50.998;22.340;2022-07-29T08:37:11;1.55;;;0.90;;
53503;SDS011;39387;50.998;22.340;2022-07-29T08:39:39;1.63;;;0.80;;
53503;SDS011;39387;50.998;22.340;2022-07-29T08:42:07;1.35;;;1.00;;
53503;SDS011;39387;50.998;22.340;2022-07-29T08:44:35;2.67;;;0.80;;
53503;SDS011;39387;50.998;22.340;2022-07-29T08:47:02;0.90;;;0.90;;
53503;SDS011;39387;50.998;22.340;2022-07-29T08:49:32;1.33;;;0.95;;
53503;SDS011;39387;50.998;22.340;2022-07-29T08:51:59;1.70;;;1.10;;
53503;SDS011;39387;50.998;22.340;2022-07-29T08:54:27;2.53;;;1.10;;
53503;SDS011;39387;50.998;22.340;2022-07-29T08:56:55;2.20;;;0.88;;
53503;SDS011;39387;50.998;22.340;2022-07-29T08:59:22;1.15;;;1.00;;
53503;SDS011;39387;50.998;22.340;2022-07-29T09:01:52;1.77;;;0.95;;
53503;SDS011;39387;50.998;22.340;2022-07-29T09:04:20;1.27;;;1.10;;
53503;SDS011;39387;50.998;22.340;2022-07-29T09:06:50;1.10;;;1.00;;
53503;SDS011;39387;50.998;22.340;2022-07-29T09:09:18;1.45;;;1.20;;
53503;SDS011;39387;50.998;22.340;2022-07-29T09:11:46;1.38;;;0.95;;
53503;SDS011;39387;50.998;22.340;2022-07-29T09:14:13;2.70;;;1.30;;
53503;SDS011;39387;50.998;22.340;2022-07-29T09:16:48;1.33;;;1.10;;
53503;SDS011;39387;50.998;22.340;2022-07-29T09:19:21;1.63;;;1.00;;
53503;SDS011;39387;50.998;22.340;2022-07-29T09:21:51;1.70;;;1.00;;
53503;SDS011;39387;50.998;22.340;2022-07-29T09:24:25;1.00;;;0.80;;
53503;SDS011;39387;50.998;22.340;2022-07-29T09:27:12;1.38;;;1.20;;
53503;SDS011;39387;50.998;22.340;2022-07-29T09:29:46;2.95;;;1.08;;
53503;SDS011;39387;50.998;22.340;2022-07-29T09:32:14;1.67;;;1.02;;
53503;SDS011;39387;50.998;22.340;2022-07-29T09:34:41;1.33;;;1.00;;
53503;SDS011;39387;50.998;22.340;2022-07-29T09:37:10;1.92;;;0.95;;
53503;SDS011;39387;50.998;22.340;2022-07-29T09:39:37;0.80;;;0.80;;
53503;SDS011;39387;50.998;22.340;2022-07-29T09:42:11;0.90;;;0.80;;
53503;SDS011;39387;50.998;22.340;2022-07-29T09:44:43;1.13;;;0.90;;
53503;SDS011;39387;50.998;22.340;2022-07-29T09:47:13;1.00;;;1.00;;
53503;SDS011;39387;50.998;22.340;2022-07-29T09:49:51;1.45;;;1.35;;
53503;SDS011;39387;50.998;22.340;2022-07-29T09:52:21;1.27;;;1.15;;
53503;SDS011;39387;50.998;22.340;2022-07-29T09:54:48;3.53;;;1.15;;
53503;SDS011;39387;50.998;22.340;2022-07-29T09:57:22;1.55;;;1.00;;
53503;SDS011;39387;50.998;22.340;2022-07-29T09:59:55;1.10;;;1.00;;
53503;SDS011;39387;50.998;22.340;2022-07-29T10:02:27;2.58;;;1.17;;
53503;SDS011;39387;50.998;22.340;2022-07-29T10:04:56;1.00;;;1.00;;
53503;SDS011;39387;50.998;22.340;2022-07-29T10:07:25;1.42;;;1.02;;
53503;SDS011;39387;50.998;22.340;2022-07-29T10:09:53;1.20;;;1.10;;
53503;SDS011;39387;50.998;22.340;2022-07-29T10:12:21;1.35;;;1.00;;
53503;SDS011;39387;50.998;22.340;2022-07-29T10:14:49;1.17;;;1.08;;
53503;SDS011;39387;50.998;22.340;2022-07-29T10:17:16;1.20;;;1.10;;
53503;SDS011;39387;50.998;22.340;2022-07-29T10:19:44;1.73;;;1.02;;
53503;SDS011;39387;50.998;22.340;2022-07-29T10:22:12;1.27;;;1.15;;
53503;SDS011;39387;50.998;22.340;2022-07-29T10:24:40;1.38;;;1.10;;
53503;SDS011;39387;50.998;22.340;2022-07-29T10:27:08;1.77;;;1.42;;
53503;SDS011;39387;50.998;22.340;2022-07-29T10:29:35;1.30;;;1.20;;
53503;SDS011;39387;50.998;22.340;2022-07-29T10:35:14;2.47;;;1.13;;
53503;SDS011;39387;50.998;22.340;2022-07-29T10:37:56;1.30;;;1.20;;
53503;SDS011;39387;50.998;22.340;2022-07-29T10:40:34;1.55;;;1.05;;
53503;SDS011;39387;50.998;22.340;2022-07-29T10:43:26;2.58;;;1.15;;
53503;SDS011;39387;50.998;22.340;2022-07-29T10:45:55;2.92;;;1.10;;
53503;SDS011;39387;50.998;22.340;2022-07-29T10:48:23;3.10;;;1.40;;
53503;SDS011;39387;50.998;22.340;2022-07-29T10:50:57;1.58;;;1.20;;
53503;SDS011;39387;50.998;22.340;2022-07-29T10:56:24;2.05;;;1.40;;
53503;SDS011;39387;50.998;22.340;2022-07-29T11:01:51;2.00;;;1.08;;
53503;SDS011;39387;50.998;22.340;2022-07-29T11:07:26;1.15;;;1.05;;
53503;SDS011;39387;50.998;22.340;2022-07-29T11:12:47;1.10;;;1.00;;
53503;SDS011;39387;50.998;22.340;2022-07-29T11:15:17;1.48;;;1.05;;
53503;SDS011;39387;50.998;22.340;2022-07-29T11:18:08;1.42;;;1.27;;
53503;SDS011;39387;50.998;22.340;2022-07-29T11:20:39;2.40;;;1.20;;
53503;SDS011;39387;50.998;22.340;2022-07-29T11:28:52;1.15;;;1.10;;
53503;SDS011;39387;50.998;22.340;2022-07-29T11:31:32;1.80;;;1.20;;
53503;SDS011;39387;50.998;22.340;2022-07-29T11:40:10;1.77;;;1.20;;
53503;SDS011;39387;50.998;22.340;2022-07-29T11:42:43;1.40;;;1.10;;
53503;SDS011;39387;50.998;22.340;2022-07-29T11:45:13;1.50;;;1.17;;
53503;SDS011;39387;50.998;22.340;2022-07-29T11:47:47;1.55;;;1.20;;
53503;SDS011;39387;50.998;22.340;2022-07-29T11:50:26;5.35;;;1.23;;
53503;SDS011;39387;50.998;22.340;2022-07-29T11:52:58;1.80;;;1.40;;
53503;SDS011;39387;50.998;22.340;2022-07-29T11:55:26;1.40;;;1.30;;
53503;SDS011;39387;50.998;22.340;2022-07-29T11:57:54;2.95;;;1.30;;
53503;SDS011;39387;50.998;22.340;2022-07-29T12:00:24;1.50;;;1.40;;
53503;SDS011;39387;50.998;22.340;2022-07-29T12:02:54;1.92;;;1.20;;
53503;SDS011;39387;50.998;22.340;2022-07-29T12:05:30;2.10;;;1.42;;
53503;SDS011;39387;50.998;22.340;2022-07-29T12:08:05;1.63;;;1.33;;
53503;SDS011;39387;50.998;22.340;2022-07-29T12:10:37;2.08;;;1.40;;
53503;SDS011;39387;50.998;22.340;2022-07-29T12:13:05;1.95;;;1.60;;
53503;SDS011;39387;50.998;22.340;2022-07-29T12:15:34;1.65;;;1.52;;
53503;SDS011;39387;50.998;22.340;2022-07-29T12:18:11;2.38;;;1.70;;
53503;SDS011;39387;50.998;22.340;2022-07-29T12:20:40;2.70;;;2.20;;
53503;SDS011;39387;50.998;22.340;2022-07-29T12:23:07;1.48;;;1.38;;
53503;SDS011;39387;50.998;22.340;2022-07-29T12:28:05;1.45;;;1.30;;
53503;SDS011;39387;50.998;22.340;2022-07-29T12:30:35;2.35;;;1.73;;
53503;SDS011;39387;50.998;22.340;2022-07-29T12:33:15;1.58;;;1.48;;
53503;SDS011;39387;50.998;22.340;2022-07-29T12:38:12;1.92;;;1.50;;
53503;SDS011;39387;50.998;22.340;2022-07-29T12:40:40;1.58;;;1.40;;
53503;SDS011;39387;50.998;22.340;2022-07-29T12:43:08;1.40;;;1.30;;
53503;SDS011;39387;50.998;22.340;2022-07-29T12:45:38;1.88;;;1.67;;
53503;SDS011;39387;50.998;22.340;2022-07-29T12:48:06;1.90;;;1.80;;
53503;SDS011;39387;50.998;22.340;2022-07-29T12:50:35;2.00;;;1.50;;
53503;SDS011;39387;50.998;22.340;2022-07-29T12:53:10;2.10;;;1.50;;
53503;SDS011;39387;50.998;22.340;2022-07-29T12:55:40;2.00;;;1.67;;
53503;SDS011;39387;50.998;22.340;2022-07-29T12:58:08;2.95;;;1.75;;
53503;SDS011;39387;50.998;22.340;2022-07-29T13:00:35;2.20;;;1.70;;
53503;SDS011;39387;50.998;22.340;2022-07-29T13:03:04;2.00;;;1.60;;
53503;SDS011;39387;50.998;22.340;2022-07-29T13:05:41;2.88;;;1.70;;
53503;SDS011;39387;50.998;22.340;2022-07-29T13:08:10;1.58;;;1.48;;
53503;SDS011;39387;50.998;22.340;2022-07-29T13:10:38;1.70;;;1.60;;
53503;SDS011;39387;50.998;22.340;2022-07-29T13:13:06;1.75;;;1.65;;
53503;SDS011;39387;50.998;22.340;2022-07-29T13:15:35;1.77;;;1.60;;
53503;SDS011;39387;50.998;22.340;2022-07-29T13:18:04;3.75;;;1.98;;
53503;SDS011;39387;50.998;22.340;2022-07-29T13:20:32;2.47;;;1.98;;
53503;SDS011;39387;50.998;22.340;2022-07-29T13:23:00;2.78;;;1.70;;
53503;SDS011;39387;50.998;22.340;2022-07-29T13:25:28;2.50;;;1.90;;
53503;SDS011;39387;50.998;22.340;2022-07-29T13:27:57;2.35;;;1.80;;
53503;SDS011;39387;50.998;22.340;2022-07-29T13:30:24;2.03;;;1.50;;
53503;SDS011;39387;50.998;22.340;2022-07-29T13:32:52;1.85;;;1.75;;
53503;SDS011;39387;50.998;22.340;2022-07-29T13:35:21;1.80;;;1.70;;
53503;SDS011;39387;50.998;22.340;2022-07-29T13:37:49;1.88;;;1.65;;
53503;SDS011;39387;50.998;22.340;2022-07-29T13:40:16;1.55;;;1.45;;
53503;SDS011;39387;50.998;22.340;2022-07-29T13:42:43;2.38;;;1.88;;
53503;SDS011;39387;50.998;22.340;2022-07-29T13:45:11;2.78;;;1.73;;
53503;SDS011;39387;50.998;22.340;2022-07-29T13:47:38;1.65;;;1.50;;
53503;SDS011;39387;50.998;22.340;2022-07-29T13:50:06;1.70;;;1.60;;
53503;SDS011;39387;50.998;22.340;2022-07-29T13:52:37;1.50;;;1.40;;
53503;SDS011;39387;50.998;22.340;2022-07-29T13:55:05;2.22;;;1.50;;
53503;SDS011;39387;50.998;22.340;2022-07-29T13:57:33;2.10;;;1.65;;
53503;SDS011;39387;50.998;22.340;2022-07-29T14:00:01;2.25;;;1.33;;
53503;SDS011;39387;50.998;22.340;2022-07-29T14:02:28;2.00;;;1.67;;
53503;SDS011;39387;50.998;22.340;2022-07-29T14:04:55;1.52;;;1.42;;
53503;SDS011;39387;50.998;22.340;2022-07-29T14:07:23;4.00;;;1.75;;
53503;SDS011;39387;50.998;22.340;2022-07-29T14:09:52;1.75;;;1.60;;
53503;SDS011;39387;50.998;22.340;2022-07-29T14:12:19;1.85;;;1.48;;
53503;SDS011;39387;50.998;22.340;2022-07-29T14:14:46;3.05;;;1.70;;
53503;SDS011;39387;50.998;22.340;2022-07-29T14:17:13;4.15;;;1.70;;
53503;SDS011;39387;50.998;22.340;2022-07-29T14:19:41;1.60;;;1.50;;
53503;SDS011;39387;50.998;22.340;2022-07-29T14:22:08;1.75;;;1.50;;
53503;SDS011;39387;50.998;22.340;2022-07-29T14:24:36;1.67;;;1.58;;
53503;SDS011;39387;50.998;22.340;2022-07-29T14:27:05;1.45;;;1.35;;
53503;SDS011;39387;50.998;22.340;2022-07-29T14:29:33;1.75;;;1.65;;
53503;SDS011;39387;50.998;22.340;2022-07-29T14:32:01;3.45;;;1.90;;
53503;SDS011;39387;50.998;22.340;2022-07-29T14:34:28;1.70;;;1.58;;
53503;SDS011;39387;50.998;22.340;2022-07-29T14:36:55;1.60;;;1.42;;
53503;SDS011;39387;50.998;22.340;2022-07-29T14:39:22;1.73;;;1.63;;
53503;SDS011;39387;50.998;22.340;2022-07-29T14:41:50;2.50;;;1.60;;
53503;SDS011;39387;50.998;22.340;2022-07-29T14:44:19;1.77;;;1.55;;
53503;SDS011;39387;50.998;22.340;2022-07-29T14:46:46;1.90;;;1.60;;
53503;SDS011;39387;50.998;22.340;2022-07-29T14:49:13;1.65;;;1.55;;
53503;SDS011;39387;50.998;22.340;2022-07-29T14:51:41;1.75;;;1.25;;
53503;SDS011;39387;50.998;22.340;2022-07-29T14:54:08;1.50;;;1.40;;
53503;SDS011;39387;50.998;22.340;2022-07-29T14:56:35;1.60;;;1.45;;
53503;SDS011;39387;50.998;22.340;2022-07-29T14:59:03;2.42;;;1.65;;
53503;SDS011;39387;50.998;22.340;2022-07-29T15:01:32;1.58;;;1.48;;
53503;SDS011;39387;50.998;22.340;2022-07-29T15:03:59;2.10;;;1.63;;
53503;SDS011;39387;50.998;22.340;2022-07-29T15:06:27;1.85;;;1.67;;
53503;SDS011;39387;50.998;22.340;2022-07-29T15:08:54;1.75;;;1.50;;
53503;SDS011;39387;50.998;22.340;2022-07-29T15:11:21;3.05;;;1.75;;
53503;SDS011;39387;50.998;22.340;2022-07-29T15:13:49;1.55;;;1.45;;
53503;SDS011;39387;50.998;22.340;2022-07-29T15:16:17;3.95;;;1.65;;
53503;SDS011;39387;50.998;22.340;2022-07-29T15:18:45;1.95;;;1.60;;
53503;SDS011;39387;50.998;22.340;2022-07-29T15:21:13;3.42;;;1.60;;
53503;SDS011;39387;50.998;22.340;2022-07-29T15:23:40;2.17;;;1.98;;